createdAt,value
2018-12-17T00:00:10.490Z,104.17
2018-12-17T00:02:37.986Z,101.60
2018-12-17T00:05:05.504Z,122.87
2018-12-17T00:07:33.056Z,129.13
2018-12-17T00:10:00.910Z,126.10
2018-12-17T00:12:28.405Z,104.13
2018-12-17T00:14:55.916Z,109.53
2018-12-17T00:17:23.531Z,91.53
2018-12-17T00:19:51.021Z,112.07
2018-12-17T00:22:18.514Z,96.60
2018-12-17T00:24:46.073Z,127.77
2018-12-17T00:27:13.563Z,104.17
2018-12-17T00:29:41.096Z,152.17
2018-12-17T00:32:08.592Z,118.83
2018-12-17T00:34:36.092Z,154.80
2018-12-17T00:37:03.684Z,122.47
2018-12-17T00:39:31.190Z,133.87
2018-12-17T00:41:58.681Z,125.37
2018-12-17T00:44:26.222Z,128.10
2018-12-17T00:46:53.754Z,104.83
2018-12-17T00:49:21.261Z,75.03
2018-12-17T00:51:48.749Z,85.60
2018-12-17T00:54:16.259Z,78.70
2018-12-17T00:56:43.739Z,80.33
2018-12-17T00:59:11.269Z,80.13
2018-12-17T01:01:38.936Z,86.33
2018-12-17T01:04:06.535Z,72.00
2018-12-17T01:06:34.053Z,86.77
2018-12-17T01:09:01.568Z,87.80
2018-12-17T01:11:29.066Z,79.53
2018-12-17T01:13:56.550Z,104.37
2018-12-17T01:16:24.193Z,114.57
2018-12-17T01:18:51.679Z,100.53
2018-12-17T01:21:19.157Z,102.40
2018-12-17T01:23:46.673Z,106.70
2018-12-17T01:26:14.253Z,114.87
2018-12-17T01:28:42.058Z,126.50
2018-12-17T01:31:09.544Z,120.70
2018-12-17T01:33:37.036Z,149.50
2018-12-17T01:36:04.653Z,95.67
2018-12-17T01:38:32.174Z,94.43
2018-12-17T01:40:59.659Z,119.10
2018-12-17T01:43:27.312Z,93.60
2018-12-17T01:45:54.801Z,98.50
2018-12-17T01:48:22.286Z,91.77
2018-12-17T01:50:49.839Z,171.70
2018-12-17T01:53:17.362Z,140.07
2018-12-17T01:55:44.911Z,119.50
2018-12-17T01:58:12.396Z,152.37
2018-12-17T02:00:39.893Z,106.13
2018-12-17T02:03:07.402Z,134.17
2018-12-17T02:05:34.897Z,100.03
2018-12-17T02:08:02.526Z,109.40
2018-12-17T02:10:30.057Z,100.67
2018-12-17T02:12:57.591Z,108.87
2018-12-17T02:15:25.126Z,95.10
2018-12-17T02:17:52.607Z,95.17
2018-12-17T02:20:20.121Z,69.23
2018-12-17T02:22:47.625Z,118.83
2018-12-17T02:25:15.161Z,136.60
2018-12-17T02:27:42.896Z,74.37
2018-12-17T02:30:10.415Z,105.53
2018-12-17T02:32:37.967Z,87.83
2018-12-17T02:35:05.485Z,81.33
2018-12-17T02:37:32.992Z,88.80
2018-12-17T02:40:00.575Z,101.97
2018-12-17T02:42:28.110Z,113.57
2018-12-17T02:44:55.596Z,101.57
2018-12-17T02:47:23.074Z,133.87
2018-12-17T02:49:50.572Z,92.20
2018-12-17T02:52:18.105Z,101.30
2018-12-17T02:54:45.612Z,93.10
2018-12-17T02:57:13.117Z,137.13
2018-12-17T02:59:40.657Z,89.47
2018-12-17T03:02:08.169Z,96.93
2018-12-17T03:04:35.667Z,126.03
2018-12-17T03:07:03.283Z,115.13
2018-12-17T03:09:30.764Z,150.47
2018-12-17T03:11:58.256Z,112.33
2018-12-17T03:14:25.771Z,92.80
2018-12-17T03:16:53.259Z,124.47
2018-12-17T03:19:20.765Z,109.40
2018-12-17T03:21:48.426Z,128.30
2018-12-17T03:24:15.916Z,129.67
2018-12-17T03:26:43.443Z,159.03
2018-12-17T03:29:10.993Z,131.07
2018-12-17T03:31:38.686Z,162.13
2018-12-17T03:34:06.226Z,255.67
2018-12-17T03:36:33.747Z,183.80
2018-12-17T03:39:01.308Z,133.37
2018-12-17T03:41:28.818Z,181.47
2018-12-17T03:43:56.312Z,220.93
2018-12-17T03:46:23.817Z,181.63
2018-12-17T03:48:51.342Z,205.03
2018-12-17T03:51:18.847Z,196.77
2018-12-17T03:53:46.356Z,131.93
2018-12-17T03:56:13.866Z,116.90
2018-12-17T03:58:41.519Z,137.40
2018-12-17T04:01:09.004Z,204.57
2018-12-17T04:03:36.491Z,184.03
2018-12-17T04:06:03.997Z,219.37
2018-12-17T04:08:31.532Z,193.57
2018-12-17T04:10:59.141Z,201.07
2018-12-17T04:13:26.644Z,223.47
2018-12-17T04:15:54.168Z,231.97
2018-12-17T04:18:22.284Z,172.67
2018-12-17T04:20:49.779Z,197.60
2018-12-17T04:23:17.332Z,276.10
2018-12-17T04:25:44.944Z,274.63
2018-12-17T04:28:12.485Z,227.10
2018-12-17T04:30:39.974Z,243.90
2018-12-17T04:33:07.500Z,198.07
2018-12-17T04:35:34.981Z,231.07
2018-12-17T04:38:02.478Z,196.73
2018-12-17T04:40:29.994Z,247.67
2018-12-17T04:42:57.621Z,196.80
2018-12-17T04:45:25.142Z,212.13
2018-12-17T04:47:52.659Z,192.87
2018-12-17T04:50:20.161Z,208.30
2018-12-17T04:52:47.643Z,182.83
2018-12-17T04:55:15.178Z,224.93
2018-12-17T04:57:42.925Z,224.60
2018-12-17T05:00:10.453Z,175.93
2018-12-17T05:02:37.950Z,146.63
2018-12-17T05:05:05.465Z,147.43
2018-12-17T05:07:33.159Z,189.00
2018-12-17T05:10:00.817Z,144.00
2018-12-17T05:12:28.305Z,204.57
2018-12-17T05:14:55.788Z,183.07
2018-12-17T05:17:23.320Z,176.50
2018-12-17T05:19:50.808Z,164.37
2018-12-17T05:22:18.419Z,176.70
2018-12-17T05:24:45.904Z,199.43
2018-12-17T05:27:13.386Z,220.43
2018-12-17T05:29:40.901Z,183.43
2018-12-17T05:32:08.404Z,152.07
2018-12-17T05:34:35.895Z,216.90
2018-12-17T05:37:03.418Z,189.57
2018-12-17T05:39:30.967Z,203.33
2018-12-17T05:41:58.621Z,157.43
2018-12-17T05:44:26.105Z,192.40
2018-12-17T05:46:53.612Z,160.40
2018-12-17T05:49:21.461Z,187.40
2018-12-17T05:51:48.952Z,187.67
2018-12-17T05:54:16.445Z,164.03
2018-12-17T05:56:43.993Z,230.30
2018-12-17T05:59:11.475Z,179.67
2018-12-17T06:01:39.016Z,174.97
2018-12-17T06:04:06.499Z,204.80
2018-12-17T06:06:34.071Z,217.53
2018-12-17T06:09:02.028Z,160.13
2018-12-17T06:11:29.697Z,219.63
2018-12-17T06:13:57.372Z,151.47
2018-12-17T06:16:25.085Z,189.27
2018-12-17T06:18:52.612Z,204.40
2018-12-17T06:21:20.096Z,194.00
2018-12-17T06:23:47.629Z,185.70
2018-12-17T06:26:15.183Z,206.80
2018-12-17T06:28:42.737Z,214.53
2018-12-17T06:31:10.307Z,191.77
2018-12-17T06:33:38.061Z,192.57
2018-12-17T06:36:05.947Z,171.97
2018-12-17T06:38:33.465Z,214.00
2018-12-17T06:41:00.985Z,197.30
2018-12-17T06:43:28.489Z,219.80
2018-12-17T06:45:55.982Z,192.53
2018-12-17T06:48:23.503Z,170.33
2018-12-17T06:50:51.020Z,163.60
2018-12-17T06:53:18.509Z,173.30
2018-12-17T06:55:46.019Z,203.67
2018-12-17T06:58:13.823Z,197.33
2018-12-17T07:00:41.337Z,179.53
2018-12-17T07:03:08.830Z,158.80
2018-12-17T07:05:36.437Z,170.67
2018-12-17T07:08:03.915Z,180.70
2018-12-17T07:10:31.401Z,151.10
2018-12-17T07:12:58.915Z,175.43
2018-12-17T07:15:26.400Z,153.90
2018-12-17T07:17:53.942Z,129.30
2018-12-17T07:20:21.441Z,130.43
2018-12-17T07:22:48.932Z,163.83
2018-12-17T07:25:16.453Z,138.67
2018-12-17T07:27:44.030Z,167.77
2018-12-17T07:30:11.529Z,126.67
2018-12-17T07:32:39.022Z,155.83
2018-12-17T07:35:06.568Z,135.13
2018-12-17T07:37:34.146Z,145.30
2018-12-17T07:40:01.775Z,140.10
2018-12-17T07:42:29.280Z,128.13
2018-12-17T07:44:56.805Z,140.03
2018-12-17T07:47:24.330Z,137.63
2018-12-17T07:49:51.861Z,141.73
2018-12-17T07:52:19.357Z,147.17
2018-12-17T07:54:46.841Z,153.13
2018-12-17T07:57:14.604Z,140.37
2018-12-17T07:59:42.141Z,132.37
2018-12-17T08:02:09.658Z,136.00
2018-12-17T08:04:37.207Z,150.07
2018-12-17T08:07:04.825Z,106.73
2018-12-17T08:09:32.321Z,142.13
2018-12-17T08:11:59.822Z,140.90
2018-12-17T08:14:27.573Z,123.53
2018-12-17T08:16:55.180Z,130.77
2018-12-17T08:19:22.737Z,99.27
2018-12-17T08:21:50.356Z,109.73
2018-12-17T08:24:17.833Z,96.00
2018-12-17T08:26:45.384Z,104.57
2018-12-17T08:29:13.208Z,90.87
2018-12-17T08:31:40.736Z,89.33
2018-12-17T08:34:08.211Z,87.00
2018-12-17T08:36:35.878Z,99.53
2018-12-17T08:39:03.637Z,103.43
2018-12-17T08:41:31.158Z,92.30
2018-12-17T08:43:58.657Z,98.63
2018-12-17T08:46:26.145Z,83.27
2018-12-17T08:48:53.661Z,97.00
2018-12-17T08:51:21.143Z,90.50
2018-12-17T08:53:48.643Z,75.10
2018-12-17T08:56:16.123Z,79.67
2018-12-17T08:58:43.629Z,81.40
2018-12-17T09:01:11.148Z,89.67
2018-12-17T09:03:38.648Z,73.50
2018-12-17T09:06:06.283Z,83.10
2018-12-17T09:08:33.827Z,71.50
2018-12-17T09:11:02.509Z,73.30
2018-12-17T09:13:30.255Z,78.07
2018-12-17T09:15:57.827Z,74.00
2018-12-17T09:18:25.321Z,78.10
2018-12-17T09:20:52.807Z,68.07
2018-12-17T09:23:20.311Z,70.57
2018-12-17T09:25:47.791Z,73.93
2018-12-17T09:28:15.439Z,66.83
2018-12-17T09:30:42.935Z,61.77
2018-12-17T09:33:10.428Z,84.67
2018-12-17T09:35:37.951Z,58.83
2018-12-17T09:38:05.436Z,66.43
2018-12-17T09:40:32.919Z,61.30
2018-12-17T09:43:00.660Z,77.97
2018-12-17T09:45:28.143Z,63.33
2018-12-17T09:47:55.961Z,68.57
2018-12-17T09:50:23.445Z,56.00
2018-12-17T09:52:50.988Z,55.17
2018-12-17T09:55:18.928Z,66.00
2018-12-17T09:57:46.420Z,57.40
2018-12-17T10:00:13.896Z,72.47
2018-12-17T10:02:41.393Z,53.03
2018-12-17T10:05:08.904Z,59.27
2018-12-17T10:07:36.454Z,61.10
2018-12-17T10:10:05.057Z,66.33
2018-12-17T10:12:32.548Z,48.87
2018-12-17T10:15:00.040Z,48.00
2018-12-17T10:17:27.583Z,53.20
2018-12-17T10:19:55.107Z,53.50
2018-12-17T10:22:22.601Z,48.53
2018-12-17T10:24:50.106Z,42.97
2018-12-17T10:27:17.597Z,40.27
2018-12-17T10:29:45.208Z,48.03
2018-12-17T10:32:12.688Z,49.03
2018-12-17T10:34:40.202Z,48.87
2018-12-17T10:37:07.701Z,42.07
2018-12-17T10:39:35.189Z,48.83
2018-12-17T10:42:02.689Z,47.93
2018-12-17T10:44:30.178Z,45.43
2018-12-17T10:46:57.734Z,43.07
2018-12-17T10:49:25.233Z,47.70
2018-12-17T10:51:53.015Z,40.40
2018-12-17T10:54:20.539Z,48.83
2018-12-17T10:56:48.053Z,46.90
2018-12-17T10:59:15.561Z,53.93
2018-12-17T11:01:56.797Z,42.67
2018-12-17T11:04:24.585Z,42.13
2018-12-17T11:06:52.201Z,47.93
2018-12-17T11:09:19.685Z,43.57
2018-12-17T11:11:47.173Z,38.97
2018-12-17T11:14:14.691Z,39.43
2018-12-17T11:16:42.213Z,43.17
2018-12-17T11:19:09.737Z,42.73
2018-12-17T11:21:37.324Z,42.27
2018-12-17T11:24:04.802Z,44.73
2018-12-17T11:26:32.413Z,52.47
2018-12-17T11:28:59.928Z,38.77
2018-12-17T11:31:27.404Z,38.70
2018-12-17T11:33:54.915Z,34.53
2018-12-17T11:36:22.415Z,38.87
2018-12-17T11:38:50.281Z,38.40
2018-12-17T11:41:17.794Z,40.90
2018-12-17T11:43:45.281Z,41.47
2018-12-17T11:46:13.216Z,47.20
2018-12-17T11:48:41.227Z,41.93
2018-12-17T11:51:08.725Z,45.70
2018-12-17T11:53:36.229Z,49.37
2018-12-17T11:56:03.722Z,51.43
2018-12-17T11:58:31.338Z,46.33
2018-12-17T12:00:59.753Z,45.37
2018-12-17T12:03:27.421Z,52.80
2018-12-17T12:05:55.147Z,43.13
2018-12-17T12:08:22.870Z,42.43
2018-12-17T12:10:50.380Z,40.87
2018-12-17T12:13:17.909Z,47.90
2018-12-17T12:15:45.411Z,42.93
2018-12-17T12:18:12.966Z,50.43
2018-12-17T12:20:40.469Z,44.40
2018-12-17T12:23:07.956Z,50.43
2018-12-17T12:25:35.874Z,49.90
2018-12-17T12:28:03.392Z,44.87
2018-12-17T12:30:30.875Z,43.70
2018-12-17T12:32:58.541Z,50.67
2018-12-17T12:35:26.030Z,47.97
2018-12-17T12:37:53.512Z,47.37
2018-12-17T12:40:21.051Z,48.60
2018-12-17T12:42:51.742Z,46.53
2018-12-17T12:45:18.072Z,42.60
2018-12-17T12:47:45.620Z,54.20
2018-12-17T12:50:13.132Z,44.63
2018-12-17T12:52:40.634Z,42.07
2018-12-17T12:55:08.546Z,52.97
2018-12-17T12:57:36.028Z,44.70
2018-12-17T13:00:04.186Z,54.43
2018-12-17T13:02:32.036Z,51.70
2018-12-17T13:04:59.520Z,51.93
2018-12-17T13:07:27.121Z,46.40
2018-12-17T13:09:54.634Z,51.30
2018-12-17T13:12:22.136Z,47.63
2018-12-17T13:14:49.754Z,50.60
2018-12-17T13:17:22.786Z,45.60
2018-12-17T13:19:50.400Z,49.50
2018-12-17T13:22:18.455Z,45.87
2018-12-17T13:24:45.949Z,46.90
2018-12-17T13:27:13.471Z,45.00
2018-12-17T13:29:41.046Z,43.27
2018-12-17T13:32:08.583Z,54.53
2018-12-17T13:34:36.073Z,42.23
2018-12-17T13:37:03.926Z,42.50
2018-12-17T13:39:31.421Z,51.53
2018-12-17T13:41:58.914Z,48.10
2018-12-17T13:44:26.446Z,52.73
2018-12-17T13:46:53.934Z,49.80
2018-12-17T13:49:21.414Z,38.20
2018-12-17T13:51:54.564Z,44.47
2018-12-17T13:54:22.099Z,48.23
2018-12-17T13:56:49.627Z,45.40
2018-12-17T13:59:17.142Z,54.73
2018-12-17T14:01:51.227Z,44.40
2018-12-17T14:04:14.246Z,48.63
2018-12-17T14:06:41.760Z,38.67
2018-12-17T14:09:09.293Z,48.20
2018-12-17T14:11:37.287Z,40.63
2018-12-17T14:14:04.768Z,39.00
2018-12-17T14:16:38.225Z,38.60
2018-12-17T14:19:11.391Z,40.57
2018-12-17T14:21:44.533Z,39.50
2018-12-17T14:24:12.093Z,48.93
2018-12-17T14:26:39.582Z,43.63
2018-12-17T14:29:07.220Z,41.03
2018-12-17T14:31:34.712Z,42.10
2018-12-17T14:34:02.196Z,41.93
2018-12-17T14:36:30.171Z,43.10
2018-12-17T14:38:57.776Z,40.63
2018-12-17T14:41:25.263Z,43.33
2018-12-17T14:43:54.877Z,47.77
2018-12-17T14:46:22.367Z,49.57
2018-12-17T14:48:49.857Z,56.97
2018-12-17T14:51:17.502Z,52.50
2018-12-17T14:53:45.005Z,49.13
2018-12-17T14:56:12.875Z,56.03
2018-12-17T14:58:44.431Z,49.60
2018-12-17T15:01:09.902Z,46.63
2018-12-17T15:03:37.400Z,61.10
2018-12-17T15:06:04.909Z,50.43
2018-12-17T15:08:32.468Z,58.67
2018-12-17T15:10:59.954Z,50.57
2018-12-17T15:13:27.483Z,60.07
2018-12-17T15:15:55.031Z,50.40
2018-12-17T15:18:22.534Z,60.57
2018-12-17T15:20:50.305Z,67.50
2018-12-17T15:23:17.848Z,47.27
2018-12-17T15:25:45.333Z,59.57
2018-12-17T15:28:12.840Z,57.10
2018-12-17T15:30:40.378Z,48.70
2018-12-17T15:33:07.854Z,53.67
2018-12-17T15:35:35.358Z,48.27
2018-12-17T15:38:03.243Z,53.23
2018-12-17T15:40:30.734Z,46.93
2018-12-17T15:42:58.252Z,44.00
2018-12-17T15:45:25.760Z,47.77
2018-12-17T15:47:53.249Z,43.13
2018-12-17T15:50:21.054Z,47.10
2018-12-17T15:52:48.587Z,49.90
2018-12-17T15:55:16.064Z,41.63
2018-12-17T15:57:43.569Z,43.20
2018-12-17T16:00:11.072Z,42.37
2018-12-17T16:02:38.576Z,63.60
2018-12-17T16:05:06.056Z,48.67
2018-12-17T16:07:33.692Z,37.80
2018-12-17T16:10:01.220Z,34.40
2018-12-17T16:12:28.775Z,38.37
2018-12-17T16:14:56.280Z,53.37
2018-12-17T16:17:23.772Z,40.70
2018-12-17T16:19:51.310Z,38.63
2018-12-17T16:22:18.799Z,35.10
2018-12-17T16:24:46.343Z,42.13
2018-12-17T16:27:19.222Z,40.47
2018-12-17T16:29:43.367Z,30.90
2018-12-17T16:32:10.852Z,33.67
2018-12-17T16:34:38.331Z,34.23
2018-12-17T16:37:05.927Z,33.73
2018-12-17T16:39:33.420Z,41.50
2018-12-17T16:42:00.953Z,38.97
2018-12-17T16:44:28.478Z,35.63
2018-12-17T16:46:56.023Z,33.10
2018-12-17T16:49:23.527Z,31.07
2018-12-17T16:51:51.091Z,27.57
2018-12-17T16:54:18.577Z,27.50
2018-12-17T16:56:46.065Z,32.00
2018-12-17T16:59:13.609Z,35.00
2018-12-17T17:01:41.100Z,31.57
2018-12-17T17:04:08.600Z,30.23
2018-12-17T17:06:36.362Z,30.43
2018-12-17T17:09:05.764Z,22.80
2018-12-17T17:11:33.265Z,31.20
2018-12-17T17:14:00.779Z,30.53
2018-12-17T17:16:28.615Z,34.13
2018-12-17T17:18:56.101Z,28.43
2018-12-17T17:21:23.594Z,25.20
2018-12-17T17:23:51.193Z,32.03
2018-12-17T17:26:18.731Z,33.63
2018-12-17T17:28:46.258Z,24.97
2018-12-17T17:31:13.824Z,33.70
2018-12-17T17:33:41.489Z,29.43
2018-12-17T17:36:09.026Z,44.63
2018-12-17T17:38:36.548Z,35.73
2018-12-17T17:41:04.051Z,26.53
2018-12-17T17:43:31.550Z,26.13
2018-12-17T17:45:59.090Z,36.17
2018-12-17T17:48:26.606Z,43.03
2018-12-17T17:50:54.117Z,34.00
2018-12-17T17:53:21.652Z,29.77
2018-12-17T17:55:49.577Z,28.03
2018-12-17T17:58:17.072Z,24.83
2018-12-17T18:00:44.606Z,33.70
2018-12-17T18:03:12.132Z,31.73
2018-12-17T18:05:39.660Z,38.90
2018-12-17T18:08:07.166Z,31.20
2018-12-17T18:10:34.694Z,23.33
2018-12-17T18:13:02.342Z,24.77
2018-12-17T18:15:29.836Z,25.37
2018-12-17T18:17:57.325Z,34.70
2018-12-17T18:20:25.169Z,40.47
2018-12-17T18:22:52.650Z,28.70
2018-12-17T18:25:20.135Z,28.53
2018-12-17T18:27:47.650Z,30.60
2018-12-17T18:30:15.139Z,27.77
2018-12-17T18:32:42.641Z,24.60
2018-12-17T18:35:10.147Z,28.73
2018-12-17T18:37:37.766Z,28.23
2018-12-17T18:40:05.262Z,23.53
2018-12-17T18:42:32.765Z,24.90
2018-12-17T18:45:00.668Z,27.77
2018-12-17T18:47:28.196Z,24.03
2018-12-17T18:49:55.679Z,27.03
2018-12-17T18:52:23.561Z,27.10
2018-12-17T18:54:51.053Z,25.87
2018-12-17T18:57:18.578Z,35.07
2018-12-17T18:59:46.118Z,34.40
2018-12-17T19:02:13.620Z,22.97
2018-12-17T19:04:41.467Z,37.63
2018-12-17T19:07:08.992Z,23.17
2018-12-17T19:09:36.484Z,34.37
2018-12-17T19:12:03.994Z,29.77
2018-12-17T19:14:31.528Z,27.10
2018-12-17T19:16:59.041Z,21.70
2018-12-17T19:19:26.534Z,31.67
2018-12-17T19:21:54.176Z,24.93
2018-12-17T19:24:21.696Z,17.93
2018-12-17T19:26:49.187Z,24.13
2018-12-17T19:29:16.845Z,22.70
2018-12-17T19:31:44.338Z,36.10
2018-12-17T19:34:11.817Z,25.43
2018-12-17T19:36:39.463Z,27.43
2018-12-17T19:39:07.319Z,17.10
2018-12-17T19:41:34.814Z,18.40
2018-12-17T19:44:02.504Z,26.73
2018-12-17T19:46:30.057Z,25.30
2018-12-17T19:48:57.577Z,24.13
2018-12-17T19:51:26.045Z,19.00
2018-12-17T19:53:53.549Z,22.17
2018-12-17T19:56:21.046Z,19.10
2018-12-17T19:58:48.913Z,24.70
2018-12-17T20:01:16.422Z,30.80
2018-12-17T20:03:43.939Z,35.20
2018-12-17T20:06:11.548Z,23.77
2018-12-17T20:08:39.077Z,25.47
2018-12-17T20:11:06.565Z,23.20
2018-12-17T20:13:34.064Z,21.50
2018-12-17T20:16:01.700Z,35.53
2018-12-17T20:18:29.272Z,23.67
2018-12-17T20:20:56.817Z,30.00
2018-12-17T20:23:24.365Z,28.60
2018-12-17T20:25:52.008Z,30.00
2018-12-17T20:28:19.811Z,27.87
2018-12-17T20:30:47.436Z,29.63
2018-12-17T20:33:15.023Z,35.33
2018-12-17T20:35:42.526Z,34.33
2018-12-17T20:38:10.082Z,34.83
2018-12-17T20:40:37.756Z,31.43
2018-12-17T20:43:05.306Z,27.67
2018-12-17T20:45:32.840Z,37.10
2018-12-17T20:48:00.701Z,37.20
2018-12-17T20:50:28.340Z,30.33
2018-12-17T20:52:55.824Z,34.30
2018-12-17T20:55:23.328Z,27.80
2018-12-17T20:57:50.831Z,32.60
2018-12-17T21:00:18.327Z,39.60
2018-12-17T21:02:45.898Z,29.53
2018-12-17T21:05:13.429Z,30.80
2018-12-17T21:07:42.355Z,34.13
2018-12-17T21:10:14.165Z,29.80
2018-12-17T21:12:41.649Z,31.00
2018-12-17T21:15:09.209Z,23.63
2018-12-17T21:17:37.745Z,34.50
2018-12-17T21:20:05.412Z,35.13
2018-12-17T21:22:32.954Z,28.53
2018-12-17T21:25:00.736Z,30.23
2018-12-17T21:27:28.312Z,26.60
2018-12-17T21:29:55.824Z,22.93
2018-12-17T21:32:23.509Z,28.73
2018-12-17T21:34:51.001Z,34.47
2018-12-17T21:37:18.526Z,33.87
2018-12-17T21:39:46.029Z,37.27
2018-12-17T21:42:13.525Z,33.03
2018-12-17T21:44:41.079Z,32.87
2018-12-17T21:47:08.583Z,21.90
2018-12-17T21:49:36.090Z,33.10
2018-12-17T21:52:03.839Z,34.03
2018-12-17T21:54:31.332Z,22.40
2018-12-17T21:56:59.024Z,18.83
2018-12-17T21:59:26.523Z,32.67
2018-12-17T22:01:54.021Z,24.43
2018-12-17T22:04:21.534Z,21.97
2018-12-17T22:06:49.106Z,33.97
2018-12-17T22:09:16.638Z,24.93
2018-12-17T22:11:44.130Z,23.63
2018-12-17T22:14:11.715Z,34.83
2018-12-17T22:16:39.212Z,21.70
2018-12-17T22:19:06.738Z,42.17
2018-12-17T22:21:34.375Z,21.40
2018-12-17T22:24:01.868Z,21.43
2018-12-17T22:26:29.448Z,33.70
2018-12-17T22:28:57.054Z,26.33
2018-12-17T22:31:24.559Z,34.20
2018-12-17T22:33:52.102Z,28.33
2018-12-17T22:36:19.597Z,24.97
2018-12-17T22:38:47.124Z,35.53
2018-12-17T22:41:14.632Z,32.13
2018-12-17T22:43:42.136Z,42.13
2018-12-17T22:46:09.694Z,61.83
2018-12-17T22:48:37.203Z,37.47
2018-12-17T22:51:04.700Z,61.00
2018-12-17T22:53:32.346Z,48.07
2018-12-17T22:55:59.848Z,40.33
2018-12-17T22:58:27.348Z,61.30
2018-12-17T23:00:54.857Z,78.03
2018-12-17T23:03:26.236Z,59.10
2018-12-17T23:05:52.062Z,58.03
2018-12-17T23:08:19.786Z,51.97
2018-12-17T23:10:59.187Z,60.50
2018-12-17T23:13:38.466Z,49.33
2018-12-17T23:16:18.043Z,51.10
2018-12-17T23:18:45.099Z,47.53
2018-12-17T23:21:12.743Z,78.60
2018-12-17T23:23:40.381Z,50.20
2018-12-17T23:26:07.897Z,40.10
2018-12-17T23:28:35.491Z,61.70
2018-12-17T23:31:03.001Z,53.83
2018-12-17T23:33:32.963Z,49.27
2018-12-17T23:36:00.080Z,58.23
2018-12-17T23:38:27.698Z,50.43
2018-12-17T23:40:55.215Z,59.03
2018-12-17T23:43:22.745Z,53.00
2018-12-17T23:45:50.281Z,64.87
2018-12-17T23:48:17.806Z,67.33
2018-12-17T23:50:45.413Z,62.67
2018-12-17T23:53:13.395Z,72.17
2018-12-17T23:55:40.927Z,71.23
2018-12-17T23:58:08.505Z,71.50
